createdAt,value
2018-05-03T00:01:54.779Z,93.80
2018-05-03T00:03:55.722Z,93.50
2018-05-03T00:05:57.617Z,92.90
2018-05-03T00:07:59.367Z,93.70
2018-05-03T00:10:00.292Z,93.60
2018-05-03T00:12:01.225Z,93.40
2018-05-03T00:14:02.128Z,93.60
2018-05-03T00:16:03.813Z,93.60
2018-05-03T00:18:05.135Z,93.60
2018-05-03T00:20:06.864Z,93.90
2018-05-03T00:22:08.607Z,93.90
2018-05-03T00:24:09.884Z,93.40
2018-05-03T00:26:10.845Z,93.40
2018-05-03T00:28:12.705Z,93.20
2018-05-03T00:30:13.738Z,93.70
2018-05-03T00:32:14.683Z,93.00
2018-05-03T00:34:15.649Z,93.00
2018-05-03T00:36:16.577Z,93.40
2018-05-03T00:38:17.541Z,93.70
2018-05-03T00:40:18.493Z,93.90
2018-05-03T00:42:19.429Z,93.80
2018-05-03T00:44:20.365Z,93.40
2018-05-03T00:46:21.317Z,94.10
2018-05-03T00:48:22.376Z,93.60
2018-05-03T00:50:23.290Z,93.80
2018-05-03T00:52:24.324Z,93.40
2018-05-03T00:54:37.485Z,93.40
2018-05-03T00:56:38.922Z,93.40
2018-05-03T00:58:40.030Z,93.30
2018-05-03T01:00:41.033Z,92.40
2018-05-03T01:02:41.981Z,92.90
2018-05-03T01:04:42.994Z,93.20
2018-05-03T01:06:43.952Z,93.10
2018-05-03T01:08:44.881Z,93.30
2018-05-03T01:10:45.820Z,93.30
2018-05-03T01:12:46.765Z,93.10
2018-05-03T01:14:47.749Z,93.30
2018-05-03T01:16:48.680Z,92.80
2018-05-03T01:18:49.642Z,91.70
2018-05-03T01:20:50.646Z,92.50
2018-05-03T01:22:51.744Z,92.80
2018-05-03T01:24:52.697Z,92.40
2018-05-03T01:26:53.660Z,93.00
2018-05-03T01:28:55.403Z,92.50
2018-05-03T01:30:56.324Z,92.50
2018-05-03T01:32:57.308Z,92.40
2018-05-03T01:37:40.046Z,92.20
2018-05-03T01:39:41.030Z,92.20
2018-05-03T01:41:41.986Z,92.30
2018-05-03T01:43:42.915Z,92.80
2018-05-03T01:45:44.590Z,92.20
2018-05-03T01:47:45.536Z,92.20
2018-05-03T01:49:46.541Z,92.40
2018-05-03T01:51:47.614Z,92.40
2018-05-03T01:53:49.365Z,92.80
2018-05-03T01:55:51.135Z,92.90
2018-05-03T01:57:52.884Z,93.10
2018-05-03T01:59:53.827Z,93.10
2018-05-03T02:01:54.817Z,93.30
2018-05-03T02:03:55.822Z,93.60
2018-05-03T02:05:56.796Z,94.00
2018-05-03T02:07:58.568Z,94.00
2018-05-03T02:09:59.552Z,93.90
2018-05-03T02:12:00.500Z,94.10
2018-05-03T02:14:01.510Z,93.80
2018-05-03T02:16:02.504Z,94.30
2018-05-03T02:18:03.461Z,94.30
2018-05-03T02:20:04.465Z,94.00
2018-05-03T02:22:05.798Z,94.30
2018-05-03T02:24:06.826Z,94.30
2018-05-03T02:26:08.636Z,94.00
2018-05-03T02:28:09.567Z,94.00
2018-05-03T02:30:10.554Z,93.20
2018-05-03T02:32:11.489Z,93.40
2018-05-03T02:34:12.442Z,93.10
2018-05-03T02:36:13.412Z,93.20
2018-05-03T02:38:14.353Z,93.80
2018-05-03T02:40:15.325Z,94.30
2018-05-03T02:42:17.145Z,93.20
2018-05-03T02:44:18.103Z,93.20
2018-05-03T02:46:19.054Z,93.30
2018-05-03T02:48:19.996Z,93.50
2018-05-03T02:50:20.934Z,94.00
2018-05-03T02:52:21.913Z,93.50
2018-05-03T02:54:23.674Z,93.30
2018-05-03T02:56:25.417Z,93.60
2018-05-03T02:58:39.161Z,93.60
2018-05-03T03:00:58.775Z,92.90
2018-05-03T03:03:19.074Z,94.10
2018-05-03T03:05:38.801Z,94.10
2018-05-03T03:08:09.650Z,94.60
2018-05-03T03:10:19.629Z,94.60
2018-05-03T03:12:34.739Z,94.50
2018-05-03T03:15:03.012Z,94.20
2018-05-03T03:17:22.543Z,94.50
2018-05-03T03:19:35.836Z,94.50
2018-05-03T03:21:55.877Z,94.70
2018-05-03T03:24:15.257Z,95.30
2018-05-03T03:29:39.418Z,94.90
2018-05-03T03:34:33.241Z,95.10
2018-05-03T03:36:35.143Z,95.00
2018-05-03T03:38:48.389Z,94.90
2018-05-03T03:41:01.790Z,94.90
2018-05-03T03:43:03.652Z,95.20
2018-05-03T03:45:05.473Z,96.00
2018-05-03T03:47:06.505Z,96.00
2018-05-03T03:49:08.526Z,96.20
2018-05-03T03:51:09.456Z,96.20
2018-05-03T03:53:10.560Z,96.30
2018-05-03T03:55:11.439Z,96.30
2018-05-03T03:57:12.361Z,96.30
2018-05-03T03:59:13.407Z,96.30
2018-05-03T04:01:14.312Z,96.10
2018-05-03T04:03:15.261Z,96.40
2018-05-03T04:05:16.188Z,96.70
2018-05-03T04:07:17.117Z,95.90
2018-05-03T04:09:18.057Z,96.20
2018-05-03T04:11:18.976Z,96.30
2018-05-03T04:13:20.641Z,96.70
2018-05-03T04:15:22.305Z,96.30
2018-05-03T04:17:36.360Z,96.80
2018-05-03T04:19:49.765Z,96.40
2018-05-03T04:24:41.005Z,97.80
2018-05-03T04:26:41.920Z,97.70
2018-05-03T04:28:42.880Z,97.90
2018-05-03T04:30:43.820Z,97.80
2018-05-03T04:32:44.745Z,97.80
2018-05-03T04:34:45.691Z,97.50
2018-05-03T04:36:46.629Z,97.30
2018-05-03T04:38:47.549Z,97.00
2018-05-03T04:40:49.217Z,97.30
2018-05-03T04:42:50.876Z,97.30
2018-05-03T04:44:52.533Z,97.20
2018-05-03T04:46:54.284Z,97.50
2018-05-03T04:48:55.151Z,97.40
2018-05-03T04:50:56.841Z,97.40
2018-05-03T04:52:57.780Z,97.40
2018-05-03T04:54:58.724Z,97.60
2018-05-03T04:56:59.650Z,97.80
2018-05-03T04:59:01.332Z,98.60
2018-05-03T05:01:02.273Z,98.50
2018-05-03T05:03:03.203Z,97.90
2018-05-03T05:05:04.873Z,98.40
2018-05-03T05:07:06.545Z,99.00
2018-05-03T05:09:07.485Z,99.00
2018-05-03T05:11:08.412Z,99.00
2018-05-03T05:13:10.069Z,99.40
2018-05-03T05:15:11.005Z,99.00
2018-05-03T05:17:11.930Z,98.50
2018-05-03T05:19:12.860Z,97.80
2018-05-03T05:21:13.789Z,97.70
2018-05-03T05:23:14.784Z,98.20
2018-05-03T05:25:16.381Z,98.10
2018-05-03T05:27:17.315Z,98.10
2018-05-03T05:29:18.976Z,98.20
2018-05-03T05:31:20.666Z,98.30
2018-05-03T05:33:21.580Z,98.30
2018-05-03T05:35:23.249Z,98.90
2018-05-03T05:37:24.923Z,99.40
2018-05-03T05:39:25.853Z,99.30
2018-05-03T05:41:27.530Z,97.40
2018-05-03T05:43:28.461Z,97.40
2018-05-03T05:45:30.129Z,95.80
2018-05-03T05:47:31.801Z,97.60
2018-05-03T05:49:32.730Z,97.60
2018-05-03T05:51:34.401Z,97.80
2018-05-03T05:53:36.074Z,96.70
2018-05-03T05:55:36.993Z,96.70
2018-05-03T05:57:37.930Z,95.70
2018-05-03T05:59:38.865Z,96.80
2018-05-03T06:01:39.793Z,96.40
2018-05-03T06:03:40.719Z,96.00
2018-05-03T06:05:41.649Z,95.90
2018-05-03T06:07:42.588Z,95.50
2018-05-03T06:09:43.506Z,95.20
2018-05-03T06:11:44.450Z,91.80
2018-05-03T06:13:45.373Z,93.20
2018-05-03T06:15:46.293Z,90.90
2018-05-03T06:17:47.209Z,90.30
2018-05-03T06:19:48.857Z,87.40
2018-05-03T06:21:50.522Z,83.00
2018-05-03T06:23:52.177Z,80.50
2018-05-03T06:25:53.090Z,80.50
2018-05-03T06:27:54.016Z,81.00
2018-05-03T06:29:54.933Z,81.40
2018-05-03T06:31:55.867Z,77.50
2018-05-03T06:33:57.519Z,72.90
2018-05-03T06:35:59.168Z,76.50
2018-05-03T06:38:00.089Z,75.70
2018-05-03T06:40:01.005Z,72.40
2018-05-03T06:42:01.919Z,66.70
2018-05-03T06:44:03.572Z,67.00
2018-05-03T06:46:04.497Z,67.00
2018-05-03T06:48:05.417Z,67.80
2018-05-03T06:50:07.078Z,65.20
2018-05-03T06:52:08.000Z,64.80
2018-05-03T06:54:08.916Z,62.70
2018-05-03T06:56:09.831Z,66.20
2018-05-03T06:58:10.769Z,65.20
2018-05-03T07:00:11.711Z,66.70
2018-05-03T07:02:12.627Z,67.00
2018-05-03T07:04:13.664Z,67.90
2018-05-03T07:06:14.509Z,69.60
2018-05-03T07:08:16.178Z,68.90
2018-05-03T07:10:17.096Z,68.80
2018-05-03T07:12:18.016Z,59.20
2018-05-03T07:14:18.936Z,56.00
2018-05-03T07:16:19.909Z,55.20
2018-05-03T07:18:20.798Z,57.50
2018-05-03T07:20:21.731Z,51.20
2018-05-03T07:22:23.429Z,50.80
2018-05-03T07:24:25.067Z,45.80
2018-05-03T07:26:25.976Z,46.20
2018-05-03T07:28:26.903Z,47.20
2018-05-03T07:30:27.825Z,46.90
2018-05-03T07:32:28.757Z,44.70
2018-05-03T07:34:29.679Z,44.00
2018-05-03T07:36:31.361Z,38.20
2018-05-03T07:38:32.308Z,38.30
2018-05-03T07:40:33.223Z,36.80
2018-05-03T07:42:34.145Z,33.40
2018-05-03T07:44:35.092Z,34.20
2018-05-03T07:46:36.021Z,35.10
2018-05-03T07:48:37.040Z,37.40
2018-05-03T07:50:37.885Z,34.00
2018-05-03T07:52:38.808Z,37.90
2018-05-03T07:54:40.473Z,32.60
2018-05-03T07:56:42.169Z,32.60
2018-05-03T07:58:43.812Z,31.80
2018-05-03T08:00:44.744Z,31.80
2018-05-03T08:02:45.664Z,30.30
2018-05-03T08:04:46.599Z,35.00
2018-05-03T08:06:47.518Z,30.10
2018-05-03T08:08:48.453Z,33.00
2018-05-03T08:10:49.376Z,31.50
2018-05-03T08:12:50.294Z,28.00
2018-05-03T08:14:51.233Z,26.80
2018-05-03T08:16:52.157Z,29.40
2018-05-03T08:18:53.109Z,28.30
2018-05-03T08:20:54.033Z,29.30
2018-05-03T08:22:54.953Z,29.40
2018-05-03T08:24:55.877Z,28.60
2018-05-03T08:26:57.533Z,28.10
2018-05-03T08:28:58.456Z,28.60
2018-05-03T08:30:59.380Z,26.40
2018-05-03T08:33:00.301Z,25.50
2018-05-03T08:35:01.226Z,28.70
2018-05-03T08:37:02.909Z,27.10
2018-05-03T08:39:03.876Z,27.10
2018-05-03T08:41:04.814Z,25.40
2018-05-03T08:43:05.745Z,23.60
2018-05-03T08:45:06.686Z,26.40
2018-05-03T08:47:07.613Z,25.40
2018-05-03T08:49:09.270Z,22.00
2018-05-03T08:51:10.945Z,25.30
2018-05-03T08:53:12.079Z,25.20
2018-05-03T08:55:13.761Z,25.70
2018-05-03T08:57:14.721Z,25.60
2018-05-03T08:59:15.666Z,27.50
2018-05-03T09:01:16.680Z,28.10
2018-05-03T09:03:17.557Z,27.30
2018-05-03T09:05:18.488Z,22.20
2018-05-03T09:07:19.437Z,26.00
2018-05-03T09:09:20.392Z,24.80
2018-05-03T09:11:21.341Z,22.80
2018-05-03T09:13:22.256Z,24.90
2018-05-03T09:15:23.932Z,23.90
2018-05-03T09:17:24.855Z,23.90
2018-05-03T09:19:26.530Z,23.10
2018-05-03T09:21:28.216Z,24.00
2018-05-03T09:23:29.160Z,24.00
2018-05-03T09:25:30.102Z,24.00
2018-05-03T09:27:31.043Z,20.10
2018-05-03T09:29:31.973Z,22.30
2018-05-03T09:31:33.658Z,23.90
2018-05-03T09:33:34.587Z,23.70
2018-05-03T09:35:36.264Z,23.20
2018-05-03T09:37:37.206Z,23.30
2018-05-03T09:39:38.168Z,25.80
2018-05-03T09:41:39.082Z,26.50
2018-05-03T09:43:40.768Z,22.80
2018-05-03T09:45:41.706Z,22.80
2018-05-03T09:47:42.633Z,25.80
2018-05-03T09:49:44.304Z,25.90
2018-05-03T09:51:45.225Z,25.60
2018-05-03T09:53:46.896Z,26.40
2018-05-03T09:55:48.566Z,24.30
2018-05-03T09:57:50.244Z,24.40
2018-05-03T09:59:51.184Z,24.30
2018-05-03T10:01:52.110Z,23.60
2018-05-03T10:03:53.773Z,25.10
2018-05-03T10:05:55.437Z,25.90
2018-05-03T10:07:57.100Z,26.50
2018-05-03T10:09:58.764Z,23.90
2018-05-03T10:12:00.435Z,26.60
2018-05-03T10:14:02.093Z,23.50
2018-05-03T10:16:03.778Z,24.80
2018-05-03T10:18:04.702Z,24.60
2018-05-03T10:20:06.413Z,24.70
2018-05-03T10:22:07.351Z,24.70
2018-05-03T10:24:08.284Z,23.80
2018-05-03T10:26:09.212Z,27.00
2018-05-03T10:28:10.136Z,26.10
2018-05-03T10:30:11.880Z,26.60
2018-05-03T10:32:12.756Z,27.20
2018-05-03T10:34:14.425Z,26.40
2018-05-03T10:36:15.368Z,26.10
2018-05-03T10:38:17.032Z,26.80
2018-05-03T10:40:18.350Z,25.70
2018-05-03T10:42:19.331Z,26.20
2018-05-03T10:44:20.222Z,29.60
2018-05-03T10:46:21.156Z,31.40
2018-05-03T10:48:22.087Z,28.00
2018-05-03T10:50:23.025Z,31.00
2018-05-03T10:52:24.697Z,28.00
2018-05-03T10:54:25.621Z,27.80
2018-05-03T10:56:26.536Z,29.20
2018-05-03T10:58:27.460Z,20.80
2018-05-03T11:00:28.388Z,22.90
2018-05-03T11:02:29.313Z,22.80
2018-05-03T11:04:30.240Z,23.40
2018-05-03T11:06:31.909Z,21.20
2018-05-03T11:08:32.848Z,21.20
2018-05-03T11:10:34.528Z,24.60
2018-05-03T11:12:35.449Z,24.90
2018-05-03T11:14:37.135Z,25.30
2018-05-03T11:16:38.119Z,25.20
2018-05-03T11:18:39.746Z,22.00
2018-05-03T11:20:40.680Z,22.20
2018-05-03T11:22:41.623Z,22.90
2018-05-03T11:24:42.548Z,23.90
2018-05-03T11:26:43.756Z,23.70
2018-05-03T11:28:44.700Z,25.70
2018-05-03T11:30:45.637Z,26.00
2018-05-03T11:32:46.581Z,24.30
2018-05-03T11:34:47.528Z,23.10
2018-05-03T11:36:48.552Z,25.00
2018-05-03T11:38:49.409Z,28.10
2018-05-03T11:40:50.349Z,26.70
2018-05-03T11:42:51.285Z,27.60
2018-05-03T11:44:52.223Z,28.90
2018-05-03T11:46:53.880Z,24.70
2018-05-03T11:48:55.544Z,24.00
2018-05-03T11:50:57.209Z,27.50
2018-05-03T11:52:58.132Z,27.50
2018-05-03T11:54:59.062Z,25.20
2018-05-03T11:56:59.985Z,24.40
2018-05-03T11:59:00.928Z,24.50
2018-05-03T12:01:01.861Z,24.80
2018-05-03T12:03:02.804Z,26.10
2018-05-03T12:05:04.493Z,21.80
2018-05-03T12:07:05.429Z,21.80
2018-05-03T12:09:06.377Z,23.80
2018-05-03T12:11:07.309Z,20.10
2018-05-03T12:13:08.245Z,22.10
2018-05-03T12:15:09.185Z,20.20
2018-05-03T12:17:10.102Z,24.40
2018-05-03T12:19:11.769Z,21.30
2018-05-03T12:21:13.442Z,23.00
2018-05-03T12:23:14.376Z,23.00
2018-05-03T12:25:16.044Z,20.90
2018-05-03T12:27:17.712Z,18.00
2018-05-03T12:29:18.656Z,18.00
2018-05-03T12:31:20.328Z,20.00
2018-05-03T12:33:21.260Z,20.00
2018-05-03T12:35:22.193Z,22.70
2018-05-03T12:37:23.893Z,21.10
2018-05-03T12:39:24.837Z,21.10
2018-05-03T12:41:25.764Z,21.20
2018-05-03T12:43:26.697Z,21.00
2018-05-03T12:45:28.387Z,20.90
2018-05-03T12:47:29.313Z,21.20
2018-05-03T12:49:30.240Z,16.00
2018-05-03T12:51:31.929Z,16.60
2018-05-03T12:53:32.857Z,16.40
2018-05-03T12:55:34.546Z,18.70
2018-05-03T12:57:35.469Z,18.80
2018-05-03T12:59:37.163Z,17.70
2018-05-03T13:01:38.126Z,17.70
2018-05-03T13:03:39.060Z,16.40
2018-05-03T13:05:39.997Z,19.50
2018-05-03T13:07:40.949Z,20.60
2018-05-03T13:09:41.901Z,17.60
2018-05-03T13:11:42.829Z,18.20
2018-05-03T13:13:43.761Z,17.70
2018-05-03T13:15:44.723Z,15.80
2018-05-03T13:17:45.646Z,16.30
2018-05-03T13:19:47.317Z,19.80
2018-05-03T13:21:48.244Z,19.80
2018-05-03T13:23:49.924Z,19.40
2018-05-03T13:25:50.862Z,19.50
2018-05-03T13:27:52.574Z,18.10
2018-05-03T13:29:53.513Z,17.70
2018-05-03T13:31:54.437Z,15.00
2018-05-03T13:33:55.372Z,14.50
2018-05-03T13:35:56.470Z,17.40
2018-05-03T13:37:57.401Z,17.50
2018-05-03T13:39:58.342Z,18.20
2018-05-03T13:41:59.298Z,15.80
2018-05-03T13:44:00.233Z,14.20
2018-05-03T13:46:01.187Z,17.30
2018-05-03T13:48:02.117Z,14.60
2018-05-03T13:50:03.037Z,16.20
2018-05-03T13:52:03.977Z,15.70
2018-05-03T13:54:04.902Z,16.00
2018-05-03T13:56:06.582Z,16.20
2018-05-03T13:58:07.534Z,15.50
2018-05-03T14:00:08.504Z,17.60
2018-05-03T14:02:09.509Z,16.60
2018-05-03T14:04:11.189Z,18.90
2018-05-03T14:06:12.118Z,19.10
2018-05-03T14:08:13.813Z,17.60
2018-05-03T14:10:14.759Z,17.60
2018-05-03T14:12:15.696Z,16.90
2018-05-03T14:14:16.635Z,16.70
2018-05-03T14:16:17.590Z,16.60
2018-05-03T14:18:18.529Z,16.50
2018-05-03T14:20:19.470Z,17.00
2018-05-03T14:22:20.438Z,18.30
2018-05-03T14:24:21.379Z,17.90
2018-05-03T14:26:22.334Z,16.20
2018-05-03T14:28:23.360Z,18.30
2018-05-03T14:30:24.384Z,16.10
2018-05-03T14:32:26.063Z,18.70
2018-05-03T14:34:27.722Z,18.60
2018-05-03T14:36:28.684Z,18.60
2018-05-03T14:38:29.614Z,20.00
2018-05-03T14:40:31.306Z,19.20
2018-05-03T14:42:32.241Z,19.40
2018-05-03T14:44:33.168Z,20.80
2018-05-03T14:46:34.097Z,21.30
2018-05-03T14:48:35.769Z,18.60
2018-05-03T14:50:37.442Z,19.50
2018-05-03T14:52:38.356Z,19.50
2018-05-03T14:54:39.295Z,19.80
2018-05-03T14:56:40.225Z,18.70
2018-05-03T14:58:41.161Z,22.50
2018-05-03T15:00:42.126Z,19.70
2018-05-03T15:02:43.072Z,19.90
2018-05-03T15:04:43.993Z,19.40
2018-05-03T15:06:44.916Z,19.80
2018-05-03T15:08:45.844Z,19.60
2018-05-03T15:10:47.509Z,18.30
2018-05-03T15:12:48.546Z,18.30
2018-05-03T15:14:50.117Z,19.30
2018-05-03T15:16:51.049Z,19.30
2018-05-03T15:18:52.729Z,19.30
2018-05-03T15:20:53.665Z,19.30
2018-05-03T15:22:55.330Z,21.00
2018-05-03T15:24:56.985Z,20.80
2018-05-03T15:26:58.653Z,20.20
2018-05-03T15:28:59.568Z,20.20
2018-05-03T15:31:00.514Z,23.10
2018-05-03T15:33:01.454Z,21.30
2018-05-03T15:35:02.376Z,20.00
2018-05-03T15:37:03.296Z,21.90
2018-05-03T15:39:04.217Z,19.90
2018-05-03T15:41:05.879Z,20.20
2018-05-03T15:43:07.550Z,20.70
2018-05-03T15:45:09.214Z,20.20
2018-05-03T15:47:10.136Z,20.00
2018-05-03T15:49:11.100Z,20.20
2018-05-03T15:51:12.821Z,20.70
2018-05-03T15:53:13.745Z,20.00
2018-05-03T15:55:14.661Z,20.00
2018-05-03T15:57:15.601Z,22.50
2018-05-03T15:59:16.521Z,23.20
2018-05-03T16:01:17.445Z,21.80
2018-05-03T16:03:18.360Z,21.50
2018-05-03T16:05:19.280Z,20.90
2018-05-03T16:07:20.945Z,20.10
2018-05-03T16:09:22.637Z,21.90
2018-05-03T16:11:23.565Z,22.00
2018-05-03T16:13:24.488Z,23.60
2018-05-03T16:15:26.160Z,22.80
2018-05-03T16:17:27.101Z,22.70
2018-05-03T16:19:28.777Z,22.60
2018-05-03T16:21:29.709Z,22.60
2018-05-03T16:23:31.370Z,26.30
2018-05-03T16:25:33.040Z,23.80
2018-05-03T16:27:33.982Z,23.90
2018-05-03T16:29:35.681Z,21.30
2018-05-03T16:31:36.605Z,21.30
2018-05-03T16:33:37.545Z,22.10
2018-05-03T16:35:38.461Z,19.50
2018-05-03T16:37:39.400Z,21.50
2018-05-03T16:39:40.332Z,21.50
2018-05-03T16:41:41.281Z,23.60
2018-05-03T16:43:42.189Z,24.80
2018-05-03T16:45:43.718Z,22.90
2018-05-03T16:47:44.641Z,21.30
2018-05-03T16:49:45.564Z,20.40
2018-05-03T16:51:46.495Z,20.60
2018-05-03T16:53:47.425Z,20.40
2018-05-03T16:55:48.340Z,20.00
2018-05-03T16:57:49.267Z,21.70
2018-05-03T16:59:50.293Z,22.20
2018-05-03T17:01:51.208Z,23.60
2018-05-03T17:03:52.126Z,26.60
2018-05-03T17:05:53.776Z,34.00
2018-05-03T17:07:55.457Z,31.80
2018-05-03T17:09:56.369Z,31.60
2018-05-03T17:11:57.293Z,31.00
2018-05-03T17:13:58.235Z,33.60
2018-05-03T17:15:59.148Z,35.20
2018-05-03T17:18:00.084Z,39.50
2018-05-03T17:20:01.000Z,39.40
2018-05-03T17:22:01.940Z,43.10
2018-05-03T17:24:02.877Z,45.20
2018-05-03T17:26:03.810Z,47.00
2018-05-03T17:28:04.728Z,45.70
2018-05-03T17:30:05.654Z,38.40
2018-05-03T17:32:07.358Z,39.80
2018-05-03T17:34:08.282Z,39.60
2018-05-03T17:36:09.196Z,44.70
2018-05-03T17:38:10.869Z,41.40
2018-05-03T17:40:11.811Z,41.40
2018-05-03T17:42:12.766Z,39.50
2018-05-03T17:44:13.697Z,40.00
2018-05-03T17:46:15.358Z,42.70
2018-05-03T17:48:17.048Z,42.10
2018-05-03T17:50:17.967Z,42.00
2018-05-03T17:52:19.659Z,41.70
2018-05-03T17:54:20.589Z,41.70
2018-05-03T17:56:21.525Z,44.40
2018-05-03T17:58:22.465Z,42.20
2018-05-03T18:00:24.451Z,42.30
2018-05-03T18:02:25.457Z,42.30
2018-05-03T18:04:26.529Z,48.40
2018-05-03T18:06:28.197Z,51.80
2018-05-03T18:08:29.873Z,54.20
2018-05-03T18:10:30.784Z,54.20
2018-05-03T18:12:31.749Z,56.20
2018-05-03T18:14:32.689Z,57.30
2018-05-03T18:16:34.358Z,56.70
2018-05-03T18:18:35.301Z,56.80
2018-05-03T18:20:36.962Z,57.60
2018-05-03T18:22:38.655Z,55.30
2018-05-03T18:24:39.606Z,55.50
2018-05-03T18:26:40.548Z,57.00
2018-05-03T18:28:42.221Z,62.20
2018-05-03T18:30:43.162Z,62.20
2018-05-03T18:32:44.171Z,62.10
2018-05-03T18:34:45.029Z,63.10
2018-05-03T18:36:45.970Z,64.50
2018-05-03T18:38:47.641Z,74.40
2018-05-03T18:40:48.574Z,74.30
2018-05-03T18:42:50.235Z,72.60
2018-05-03T18:44:51.901Z,69.10
2018-05-03T18:46:52.828Z,69.00
2018-05-03T18:48:54.494Z,70.90
2018-05-03T18:50:56.268Z,69.90
2018-05-03T18:52:57.926Z,69.40
2018-05-03T18:54:59.605Z,62.70
2018-05-03T18:57:00.525Z,62.90
2018-05-03T18:59:02.205Z,56.20
2018-05-03T19:01:07.165Z,49.80
2018-05-03T19:03:08.056Z,49.70
2018-05-03T19:05:08.998Z,48.40
2018-05-03T19:07:09.945Z,49.80
2018-05-03T19:09:10.881Z,48.70
2018-05-03T19:11:11.811Z,47.20
2018-05-03T19:13:12.767Z,48.90
2018-05-03T19:15:13.685Z,51.10
2018-05-03T19:17:14.625Z,50.40
2018-05-03T19:19:15.556Z,52.00
2018-05-03T19:21:16.494Z,52.80
2018-05-03T19:23:18.166Z,52.10
2018-05-03T19:25:19.074Z,52.00
2018-05-03T19:27:19.997Z,54.20
2018-05-03T19:29:20.964Z,53.00
2018-05-03T19:31:21.903Z,56.50
2018-05-03T19:33:22.825Z,56.10
2018-05-03T19:35:23.789Z,57.40
2018-05-03T19:37:24.685Z,55.10
2018-05-03T19:39:25.613Z,53.80
2018-05-03T19:41:27.281Z,60.70
2018-05-03T19:43:28.961Z,56.10
2018-05-03T19:45:29.915Z,56.00
2018-05-03T19:47:30.833Z,55.50
2018-05-03T19:49:33.521Z,59.10
2018-05-03T19:51:35.315Z,59.50
2018-05-03T19:53:36.275Z,59.20
2018-05-03T19:55:37.254Z,59.70
2018-05-03T19:57:38.252Z,61.90
2018-05-03T19:59:39.217Z,60.90
2018-05-03T20:01:40.185Z,63.00
2018-05-03T20:03:41.124Z,65.30
2018-05-03T20:05:42.070Z,67.00
2018-05-03T20:07:43.037Z,70.30
2018-05-03T20:09:43.965Z,67.40
2018-05-03T20:11:44.918Z,71.50
2018-05-03T20:13:45.901Z,68.00
2018-05-03T20:15:46.865Z,65.50
2018-05-03T20:17:47.785Z,66.30
2018-05-03T20:19:48.769Z,66.30
2018-05-03T20:21:49.800Z,67.20
2018-05-03T20:23:50.798Z,67.30
2018-05-03T20:25:51.748Z,67.20
2018-05-03T20:27:53.529Z,68.80
2018-05-03T20:29:55.246Z,68.90
2018-05-03T20:31:56.220Z,68.90
2018-05-03T20:33:57.232Z,69.60
2018-05-03T20:35:58.184Z,73.40
2018-05-03T20:37:59.656Z,73.50
2018-05-03T20:40:00.581Z,75.30
2018-05-03T20:42:01.561Z,75.00
2018-05-03T20:44:02.624Z,76.80
2018-05-03T20:46:04.376Z,76.30
2018-05-03T20:48:05.293Z,76.20
2018-05-03T20:50:06.266Z,76.70
2018-05-03T20:52:07.238Z,80.50
2018-05-03T20:54:08.122Z,79.30
2018-05-03T20:56:09.073Z,76.00
2018-05-03T20:58:10.014Z,74.70
2018-05-03T21:00:11.001Z,78.10
2018-05-03T21:02:12.676Z,79.00
2018-05-03T21:04:14.417Z,80.80
2018-05-03T21:06:15.366Z,80.70
2018-05-03T21:08:16.369Z,79.80
2018-05-03T21:10:17.325Z,79.80
2018-05-03T21:12:18.246Z,80.60
2018-05-03T21:14:19.829Z,84.40
2018-05-03T21:16:20.780Z,84.30
2018-05-03T21:18:21.693Z,85.10
2018-05-03T21:20:22.706Z,86.30
2018-05-03T21:22:23.691Z,85.00
2018-05-03T21:24:24.646Z,83.80
2018-05-03T21:26:25.702Z,87.30
2018-05-03T21:28:26.571Z,86.60
2018-05-03T21:30:27.567Z,88.70
2018-05-03T21:32:28.506Z,88.80
2018-05-03T21:34:29.541Z,89.30
2018-05-03T21:36:31.210Z,87.60
2018-05-03T21:38:32.949Z,87.30
2018-05-03T21:40:33.994Z,87.30
2018-05-03T21:42:34.932Z,88.30
2018-05-03T21:44:35.976Z,88.30
2018-05-03T21:46:36.969Z,89.20
2018-05-03T21:48:37.885Z,88.20
2018-05-03T21:50:38.837Z,88.80
2018-05-03T21:52:41.128Z,90.70
2018-05-03T21:54:42.821Z,90.80
2018-05-03T21:56:43.794Z,90.80
2018-05-03T21:58:44.729Z,90.70
2018-05-03T22:00:45.716Z,91.00
2018-05-03T22:02:47.391Z,91.20
2018-05-03T22:04:48.344Z,91.20
2018-05-03T22:06:49.344Z,91.20
2018-05-03T22:08:50.278Z,90.20
2018-05-03T22:10:51.207Z,90.60
2018-05-03T22:12:52.150Z,90.50
2018-05-03T22:14:53.683Z,91.20
2018-05-03T22:16:54.637Z,91.20
2018-05-03T22:18:55.589Z,91.00
2018-05-03T22:20:56.553Z,91.50
2018-05-03T22:22:57.488Z,92.20
2018-05-03T22:24:58.416Z,91.10
2018-05-03T22:26:59.333Z,91.70
2018-05-03T22:29:00.277Z,91.60
2018-05-03T22:31:01.257Z,92.60
2018-05-03T22:33:02.186Z,91.60
2018-05-03T22:35:03.900Z,92.10
2018-05-03T22:37:04.853Z,92.00
2018-05-03T22:39:05.792Z,91.20
2018-05-03T22:41:06.729Z,91.50
2018-05-03T22:43:07.704Z,91.40
2018-05-03T22:45:08.629Z,91.70
2018-05-03T22:47:09.572Z,91.10
2018-05-03T22:49:10.513Z,91.60
2018-05-03T22:51:11.679Z,92.40
2018-05-03T22:53:12.626Z,92.20
2018-05-03T22:55:13.663Z,92.30
2018-05-03T22:57:14.602Z,91.70
2018-05-03T22:59:15.561Z,92.40
2018-05-03T23:01:16.514Z,92.90
2018-05-03T23:03:17.493Z,91.90
2018-05-03T23:05:19.173Z,91.20
2018-05-03T23:07:20.114Z,91.20
2018-05-03T23:09:21.035Z,91.30
2018-05-03T23:11:22.814Z,91.20
2018-05-03T23:13:24.499Z,92.80
2018-05-03T23:15:25.436Z,92.70
2018-05-03T23:17:26.399Z,93.00
2018-05-03T23:19:27.366Z,93.00
2018-05-03T23:21:28.316Z,92.60
2018-05-03T23:23:29.274Z,93.00
2018-05-03T23:25:30.214Z,92.70
2018-05-03T23:27:31.178Z,93.10
2018-05-03T23:29:32.882Z,92.90
2018-05-03T23:31:33.806Z,92.90
2018-05-03T23:33:35.542Z,93.70
2018-05-03T23:35:36.474Z,93.70
2018-05-03T23:37:37.414Z,92.60
2018-05-03T23:39:38.422Z,91.60
2018-05-03T23:41:39.395Z,91.80
2018-05-03T23:43:40.346Z,91.90
2018-05-03T23:45:41.294Z,91.60
2018-05-03T23:47:42.270Z,91.80
2018-05-03T23:49:43.946Z,91.70
2018-05-03T23:51:45.634Z,92.90
2018-05-03T23:53:46.576Z,92.90
2018-05-03T23:55:47.586Z,93.30
2018-05-03T23:57:48.587Z,92.90
2018-05-03T23:59:49.526Z,91.60
